createdAt,value
2022-09-23T00:00:56.768Z,45.72
2022-09-23T00:02:57.520Z,45.76
2022-09-23T00:05:56.775Z,45.77
2022-09-23T00:08:57.309Z,45.75
2022-09-23T00:11:56.763Z,45.84
2022-09-23T00:13:56.757Z,45.59
2022-09-23T00:15:56.969Z,45.78
2022-09-23T00:18:56.769Z,45.78
2022-09-23T00:20:57.447Z,46.23
2022-09-23T00:23:56.767Z,45.83
2022-09-23T00:25:57.520Z,45.93
2022-09-23T00:29:57.224Z,46.22
2022-09-23T00:31:57.285Z,46.31
2022-09-23T00:34:56.896Z,46.09
2022-09-23T00:37:57.337Z,46.34
2022-09-23T00:40:56.993Z,46.84
2022-09-23T00:42:57.133Z,46.73
2022-09-23T00:45:56.846Z,46.64
2022-09-23T00:47:56.785Z,46.48
2022-09-23T00:50:55.859Z,46.62
2022-09-23T00:52:56.780Z,46.48
2022-09-23T00:54:57.428Z,46.6
2022-09-23T00:57:56.746Z,46.41
2022-09-23T00:59:57.710Z,46.74
2022-09-23T01:02:56.762Z,46.6
2022-09-23T01:04:57.528Z,46.57
2022-09-23T01:06:57.610Z,46.63
2022-09-23T01:09:56.783Z,47.08
2022-09-23T01:11:56.775Z,46.87
2022-09-23T01:14:57.546Z,46.89
2022-09-23T01:17:57.447Z,46.78
2022-09-23T01:20:56.973Z,46.88
2022-09-23T01:23:56.773Z,47.24
2022-09-23T01:25:56.778Z,47.04
2022-09-23T01:27:57.402Z,47.12
2022-09-23T01:30:57.356Z,46.87
2022-09-23T01:33:56.795Z,46.74
2022-09-23T01:36:56.803Z,47.02
2022-09-23T01:38:57.409Z,46.89
2022-09-23T01:41:57.272Z,47.28
2022-09-23T01:44:56.768Z,47.09
2022-09-23T01:46:56.897Z,47.47
2022-09-23T01:48:57.699Z,47.57
2022-09-23T01:51:57.253Z,47.16
2022-09-23T01:53:57.541Z,46.97
2022-09-23T01:56:55.832Z,47.09
2022-09-23T01:58:56.811Z,47.1
2022-09-23T02:00:56.848Z,46.89
2022-09-23T02:03:56.824Z,46.83
2022-09-23T02:05:57.178Z,46.79
2022-09-23T02:08:58.111Z,47.41
2022-09-23T02:11:58.831Z,47.43
2022-09-23T02:14:56.783Z,47.29
2022-09-23T02:18:56.919Z,47.36
2022-09-23T02:20:57.053Z,47.39
2022-09-23T02:23:57.582Z,47.1
2022-09-23T02:26:56.775Z,47.35
2022-09-23T02:29:56.788Z,46.97
2022-09-23T02:31:56.878Z,47.14
2022-09-23T02:33:56.962Z,47.19
2022-09-23T02:36:56.783Z,47.42
2022-09-23T02:38:57.188Z,47.27
2022-09-23T02:41:57.283Z,47.51
2022-09-23T02:44:56.817Z,47.46
2022-09-23T02:46:57.470Z,47.1
2022-09-23T02:49:56.822Z,46.94
2022-09-23T02:52:56.848Z,47.23
2022-09-23T02:54:57.513Z,47.04
2022-09-23T02:57:57.476Z,47.34
2022-09-23T03:02:56.822Z,47.71
2022-09-23T03:04:56.945Z,47.89
2022-09-23T03:06:57.459Z,47.98
2022-09-23T03:09:56.791Z,47.92
2022-09-23T03:12:57.478Z,47.91
2022-09-23T03:15:57.583Z,47.54
2022-09-23T03:18:56.776Z,47.4
2022-09-23T03:20:57.294Z,47.74
2022-09-23T03:24:56.781Z,48.15
2022-09-23T03:26:56.792Z,47.86
2022-09-23T03:28:57.453Z,47.74
2022-09-23T03:31:56.783Z,47.93
2022-09-23T03:33:57.360Z,47.58
2022-09-23T03:36:56.780Z,47.58
2022-09-23T03:38:57.047Z,47.47
2022-09-23T03:40:57.602Z,47.29
2022-09-23T03:42:57.649Z,47.17
2022-09-23T03:45:55.920Z,47.47
2022-09-23T03:48:56.889Z,47.45
2022-09-23T03:50:57.171Z,47.42
2022-09-23T03:52:57.660Z,47.83
2022-09-23T03:55:56.810Z,47.6
2022-09-23T03:57:57.356Z,47.9
2022-09-23T04:00:56.870Z,47.86
2022-09-23T04:02:57.039Z,47.78
2022-09-23T04:05:57.438Z,47.72
2022-09-23T04:08:56.804Z,47.85
2022-09-23T04:10:56.811Z,47.85
2022-09-23T04:13:57.161Z,48.01
2022-09-23T04:16:56.813Z,47.89
2022-09-23T04:19:56.837Z,47.76
2022-09-23T04:22:58.434Z,47.7
2022-09-23T04:25:57.336Z,47.62
2022-09-23T04:28:57.566Z,47.93
2022-09-23T04:31:57.678Z,48.13
2022-09-23T04:34:57.060Z,47.63
2022-09-23T04:37:57.193Z,47.39
2022-09-23T04:40:56.814Z,47.65
2022-09-23T04:42:56.790Z,47.58
2022-09-23T04:44:57.559Z,47.76
2022-09-23T04:47:56.790Z,47.8
2022-09-23T04:49:59.787Z,47.43
2022-09-23T04:52:56.793Z,47.52
2022-09-23T04:54:56.799Z,47.5
2022-09-23T04:56:56.874Z,47.63
2022-09-23T04:59:56.837Z,47.59
2022-09-23T05:01:57.091Z,47.71
2022-09-23T05:03:57.376Z,47.46
2022-09-23T05:07:02.275Z,47.29
2022-09-23T05:09:57.635Z,47.39
2022-09-23T05:12:57.444Z,47.54
2022-09-23T05:15:56.862Z,47.39
2022-09-23T05:17:57.648Z,47.16
2022-09-23T05:20:56.992Z,47.23
2022-09-23T05:22:57.254Z,47.23
2022-09-23T05:24:57.635Z,47.58
2022-09-23T05:27:56.810Z,47.58
2022-09-23T05:30:56.866Z,48.18
2022-09-23T05:33:57.400Z,48.42
2022-09-23T05:36:55.872Z,49.91
2022-09-23T05:39:56.915Z,51.01
2022-09-23T05:41:57.126Z,51.48
2022-09-23T05:44:56.819Z,50.51
2022-09-23T05:47:56.830Z,49.7
2022-09-23T05:50:57.291Z,49.53
2022-09-23T05:53:57.050Z,49.3
2022-09-23T05:56:57.693Z,48.91
2022-09-23T05:58:57.623Z,48.92
2022-09-23T06:01:57.438Z,48.87
2022-09-23T06:04:56.825Z,48.83
2022-09-23T06:07:56.833Z,48.62
2022-09-23T06:09:56.962Z,48.42
2022-09-23T06:12:56.806Z,48.28
2022-09-23T06:14:56.847Z,48.29
2022-09-23T06:16:57.732Z,48.26
2022-09-23T06:19:56.836Z,48.07
2022-09-23T06:21:57.612Z,48
2022-09-23T06:24:56.849Z,48
2022-09-23T06:26:57.051Z,47.93
2022-09-23T06:28:57.543Z,47.94
2022-09-23T06:31:55.956Z,48.4
2022-09-23T06:34:07.142Z,48.68
2022-09-23T06:36:57.092Z,49.2
2022-09-23T06:39:56.815Z,49.75
2022-09-23T06:42:55.917Z,49.85
2022-09-23T06:44:57.012Z,50
2022-09-23T06:47:56.800Z,50.35
2022-09-23T06:50:56.818Z,50.87
2022-09-23T06:54:56.809Z,49.86
2022-09-23T06:56:56.826Z,49.5
2022-09-23T06:59:56.814Z,49.27
2022-09-23T07:01:57.711Z,49.32
2022-09-23T07:05:57.088Z,48.94
2022-09-23T07:08:56.805Z,49.07
2022-09-23T07:10:56.832Z,48.84
2022-09-23T07:13:56.859Z,48.91
2022-09-23T07:16:57.380Z,48.83
2022-09-23T07:19:56.825Z,48.54
2022-09-23T07:21:56.808Z,48.44
2022-09-23T07:23:56.980Z,48.48
2022-09-23T07:25:57.443Z,48.79
2022-09-23T07:27:57.608Z,48.68
2022-09-23T07:31:00.194Z,48.53
2022-09-23T07:33:56.835Z,48.4
2022-09-23T07:36:57.408Z,48.17
2022-09-23T07:39:56.990Z,48.08
2022-09-23T07:41:57.053Z,48.45
2022-09-23T07:43:57.574Z,47.88
2022-09-23T07:46:56.832Z,47.67
2022-09-23T07:50:57.201Z,47.36
2022-09-23T07:53:56.943Z,47.79
2022-09-23T07:56:57.373Z,47.15
2022-09-23T07:59:56.836Z,47.07
2022-09-23T08:02:56.914Z,46.85
2022-09-23T08:04:56.840Z,46.64
2022-09-23T08:06:57.636Z,46.52
2022-09-23T08:09:57.306Z,46.37
2022-09-23T08:12:57.092Z,46.18
2022-09-23T08:15:56.826Z,46.56
2022-09-23T08:17:56.813Z,46.25
2022-09-23T08:19:57.317Z,46.23
2022-09-23T08:21:57.350Z,46.06
2022-09-23T08:24:57.907Z,45.99
2022-09-23T08:26:57.684Z,45.9
2022-09-23T08:29:56.810Z,45.96
2022-09-23T08:31:56.815Z,46.05
2022-09-23T08:33:56.855Z,45.9
2022-09-23T08:35:56.848Z,45.94
2022-09-23T08:37:56.841Z,45.91
2022-09-23T08:40:56.982Z,45.92
2022-09-23T08:42:57.043Z,45.93
2022-09-23T08:45:56.931Z,45.74
2022-09-23T08:48:56.838Z,46.3
2022-09-23T08:50:56.862Z,46.71
2022-09-23T08:53:56.867Z,47.19
2022-09-23T08:56:56.869Z,46.39
2022-09-23T08:58:56.931Z,46.18
2022-09-23T09:01:57.622Z,46.78
2022-09-23T09:04:57.423Z,45.56
2022-09-23T09:07:56.827Z,45.95
2022-09-23T09:10:04.114Z,45.74
2022-09-23T09:12:56.816Z,45.24
2022-09-23T09:14:57.744Z,44.84
2022-09-23T09:17:56.813Z,45.17
2022-09-23T09:19:56.846Z,45.06
2022-09-23T09:21:57.054Z,45.11
2022-09-23T09:24:57.139Z,45.03
2022-09-23T09:27:57.387Z,45.87
2022-09-23T09:30:56.870Z,45.91
2022-09-23T09:32:56.855Z,45.42
2022-09-23T09:35:57.019Z,45.63
2022-09-23T09:38:57.452Z,46.95
2022-09-23T09:41:56.822Z,46.63
2022-09-23T09:43:56.829Z,45.74
2022-09-23T09:45:58.189Z,45.65
2022-09-23T09:48:56.974Z,46.85
2022-09-23T09:51:57.573Z,45.72
2022-09-23T09:54:56.949Z,44.66
2022-09-23T09:56:57.299Z,47.11
2022-09-23T09:58:57.446Z,44.91
2022-09-23T10:01:57.111Z,45.83
2022-09-23T10:04:57.468Z,46.67
2022-09-23T10:10:01.779Z,46.23
2022-09-23T10:12:56.773Z,47.73
2022-09-23T10:14:56.804Z,48.07
2022-09-23T10:17:04.576Z,46.74
2022-09-23T10:19:56.772Z,44.62
2022-09-23T10:21:56.879Z,45.54
2022-09-23T10:23:57.541Z,48.17
2022-09-23T10:26:56.775Z,44.56
2022-09-23T10:28:57.085Z,47.83
2022-09-23T10:30:57.413Z,45.86
2022-09-23T10:33:56.795Z,45.56
2022-09-23T10:35:56.805Z,47.01
2022-09-23T10:37:57.050Z,45.71
2022-09-23T10:40:56.931Z,48.03
2022-09-23T10:42:57.381Z,47.73
2022-09-23T10:45:57.589Z,45.68
2022-09-23T10:48:57.311Z,44.83
2022-09-23T10:51:57.392Z,43.65
2022-09-23T10:54:56.807Z,43.3
2022-09-23T10:58:57.235Z,45.36
2022-09-23T11:01:57.351Z,44.64
2022-09-23T11:05:57.252Z,44.57
2022-09-23T11:08:56.830Z,42.11
2022-09-23T11:11:57.559Z,41.61
2022-09-23T11:14:56.801Z,42.83
2022-09-23T11:16:57.521Z,43.36
2022-09-23T11:18:57.482Z,40.87
2022-09-23T11:21:57.552Z,41.32
2022-09-23T11:25:04.093Z,40.92
2022-09-23T11:27:57.033Z,40.62
2022-09-23T11:29:57.476Z,43.43
2022-09-23T11:32:57.151Z,41.76
2022-09-23T11:35:56.854Z,41.22
2022-09-23T11:38:56.858Z,42.93
2022-09-23T11:40:56.919Z,41.2
2022-09-23T11:42:57.636Z,42.21
2022-09-23T11:45:56.919Z,39.7
2022-09-23T11:48:57.083Z,40.15
2022-09-23T11:50:57.363Z,39.83
2022-09-23T11:52:57.825Z,39.32
2022-09-23T11:55:58.296Z,39.9
2022-09-23T11:59:56.901Z,39.38
2022-09-23T12:03:04.445Z,39.95
2022-09-23T12:05:56.983Z,39.85
2022-09-23T12:07:56.867Z,38.84
2022-09-23T12:10:56.881Z,39.74
2022-09-23T12:12:56.905Z,39.21
2022-09-23T12:15:57.561Z,39.47
2022-09-23T12:18:56.828Z,40.04
2022-09-23T12:20:57.596Z,39.11
2022-09-23T12:23:56.812Z,40.53
2022-09-23T12:25:57.532Z,40.05
2022-09-23T12:28:56.834Z,39.74
2022-09-23T12:30:57.077Z,39.13
2022-09-23T12:33:57.599Z,38.71
2022-09-23T12:36:56.849Z,40.54
2022-09-23T12:38:57.126Z,39.55
2022-09-23T12:41:56.869Z,38.74
2022-09-23T12:43:57.289Z,38.96
2022-09-23T12:45:57.324Z,38.73
2022-09-23T12:48:56.898Z,38.5
2022-09-23T12:51:57.354Z,38.19
2022-09-23T12:53:57.424Z,38.21
2022-09-23T12:56:57.440Z,37.86
2022-09-23T12:59:57.731Z,37.86
2022-09-23T13:02:57.777Z,37.76
2022-09-23T13:05:56.840Z,38.4
2022-09-23T13:07:56.872Z,38.73
2022-09-23T13:09:57.414Z,38.52
2022-09-23T13:12:56.850Z,38.17
2022-09-23T13:15:57.245Z,38.75
2022-09-23T13:17:57.368Z,38.99
2022-09-23T13:20:56.938Z,39.38
2022-09-23T13:23:56.883Z,39.36
2022-09-23T13:25:56.882Z,39.19
2022-09-23T13:27:57.369Z,38.67
2022-09-23T13:30:57.315Z,39
2022-09-23T13:33:56.933Z,39.12
2022-09-23T13:36:55.955Z,38.7
2022-09-23T13:38:56.996Z,38.66
2022-09-23T13:40:57.425Z,38.69
2022-09-23T13:43:57.133Z,38.72
2022-09-23T13:45:57.605Z,38.42
2022-09-23T13:48:56.899Z,38.85
2022-09-23T13:50:57.347Z,38.79
2022-09-23T13:53:56.877Z,38.8
2022-09-23T13:55:56.873Z,38.99
2022-09-23T13:57:56.905Z,39.38
2022-09-23T14:01:56.986Z,39.13
2022-09-23T14:03:57.019Z,39.35
2022-09-23T14:05:57.166Z,39.23
2022-09-23T14:08:56.978Z,39.28
2022-09-23T14:10:57.010Z,39.07
2022-09-23T14:12:57.226Z,39.16
2022-09-23T14:15:56.896Z,39.67
2022-09-23T14:17:56.943Z,39.5
2022-09-23T14:20:57.701Z,39.44
2022-09-23T14:23:56.889Z,39.58
2022-09-23T14:25:56.882Z,39.37
2022-09-23T14:28:00.424Z,39.53
2022-09-23T14:30:57.941Z,39.66
2022-09-23T14:33:56.002Z,39.54
2022-09-23T14:35:56.876Z,39.19
2022-09-23T14:37:57.156Z,39.36
2022-09-23T14:40:56.980Z,39.65
2022-09-23T14:42:56.979Z,39.77
2022-09-23T14:45:57.989Z,40.04
2022-09-23T14:48:56.878Z,40.41
2022-09-23T14:50:57.600Z,40.29
2022-09-23T14:55:57.287Z,40.14
2022-09-23T14:58:56.897Z,40.07
2022-09-23T15:00:56.953Z,40.16
2022-09-23T15:02:56.894Z,40.24
2022-09-23T15:05:58.317Z,40.29
2022-09-23T15:08:56.903Z,40.47
2022-09-23T15:10:56.904Z,40.7
2022-09-23T15:13:56.967Z,40.67
2022-09-23T15:15:56.982Z,41
2022-09-23T15:18:56.911Z,41.31
2022-09-23T15:20:57.334Z,41.38
2022-09-23T15:23:56.992Z,41.64
2022-09-23T15:25:57.433Z,41.54
2022-09-23T15:28:56.915Z,41.8
2022-09-23T15:31:56.948Z,41.95
2022-09-23T15:33:57.458Z,42
2022-09-23T15:36:57.819Z,42.41
2022-09-23T15:39:57.440Z,42.5
2022-09-23T15:41:57.492Z,42.61
2022-09-23T15:43:57.601Z,42.56
2022-09-23T15:46:57.140Z,42.53
2022-09-23T15:50:56.929Z,42.67
2022-09-23T15:52:56.970Z,42.73
2022-09-23T15:54:57.053Z,43.18
2022-09-23T15:56:57.232Z,43.37
2022-09-23T15:58:57.662Z,43.34
2022-09-23T16:01:57.599Z,43.28
2022-09-23T16:04:56.906Z,43.63
2022-09-23T16:06:57.279Z,44.16
2022-09-23T16:09:56.935Z,44.39
2022-09-23T16:12:57.219Z,43.95
2022-09-23T16:15:57.620Z,44.19
2022-09-23T16:18:56.918Z,44.09
2022-09-23T16:20:57.676Z,44.45
2022-09-23T16:23:56.937Z,44.64
2022-09-23T16:25:57.032Z,44.34
2022-09-23T16:28:57.534Z,44.11
2022-09-23T16:31:57.114Z,44.66
2022-09-23T16:34:57.221Z,44.95
2022-09-23T16:37:56.915Z,45.33
2022-09-23T16:39:56.921Z,45.59
2022-09-23T16:41:57.296Z,45.64
2022-09-23T16:44:57.034Z,45.77
2022-09-23T16:46:57.629Z,46.14
2022-09-23T16:48:57.728Z,46.21
2022-09-23T16:51:56.924Z,46.36
2022-09-23T16:54:57.226Z,46.58
2022-09-23T16:56:57.278Z,46.24
2022-09-23T16:59:57.797Z,46.46
2022-09-23T17:01:57.924Z,46.55
2022-09-23T17:04:56.927Z,46.66
2022-09-23T17:06:57.755Z,46.65
2022-09-23T17:09:56.955Z,46.83
2022-09-23T17:12:57.116Z,46.84
2022-09-23T17:14:57.775Z,46.6
2022-09-23T17:17:56.910Z,46.44
2022-09-23T17:19:57.383Z,45.76
2022-09-23T17:22:57.625Z,46.03
2022-09-23T17:26:00.139Z,46.26
2022-09-23T17:27:57.019Z,46.37
2022-09-23T17:30:57.027Z,46.14
2022-09-23T17:32:57.486Z,46.45
2022-09-23T17:35:57.422Z,46.02
2022-09-23T17:38:56.028Z,46.06
2022-09-23T17:40:57.757Z,45.84
2022-09-23T17:43:57.558Z,46.18
2022-09-23T17:46:57.635Z,46.46
2022-09-23T17:49:57.612Z,46.41
2022-09-23T17:52:56.991Z,46.04
2022-09-23T17:54:57.388Z,46.27
2022-09-23T17:57:04.587Z,46.08
2022-09-23T17:59:56.015Z,45.98
2022-09-23T18:01:57.037Z,46.08
2022-09-23T18:03:56.969Z,46.16
2022-09-23T18:05:56.975Z,45.96
2022-09-23T18:07:56.984Z,46.02
2022-09-23T18:09:57.449Z,46.19
2022-09-23T18:11:57.425Z,46.48
2022-09-23T18:13:57.733Z,46.5
2022-09-23T18:16:56.971Z,46.52
2022-09-23T18:18:57.721Z,46.36
2022-09-23T18:21:56.946Z,46.46
2022-09-23T18:24:57.660Z,46.5
2022-09-23T18:27:57.758Z,46.75
2022-09-23T18:30:57.047Z,46.85
2022-09-23T18:33:56.975Z,46.66
2022-09-23T18:35:56.980Z,46.85
2022-09-23T18:37:56.981Z,46.72
2022-09-23T18:40:57.720Z,46.87
2022-09-23T18:43:57.031Z,47.09
2022-09-23T18:46:56.943Z,47.37
2022-09-23T18:48:57.539Z,47.38
2022-09-23T18:50:57.775Z,47.46
2022-09-23T18:53:56.971Z,47.44
2022-09-23T18:56:56.961Z,47.23
2022-09-23T18:59:56.951Z,47.46
2022-09-23T19:01:57.974Z,47.38
2022-09-23T19:04:57.851Z,47.26
2022-09-23T19:07:56.981Z,47.33
2022-09-23T19:09:57.891Z,47.5
2022-09-23T19:12:57.712Z,47.57
2022-09-23T19:15:57.012Z,47.99
2022-09-23T19:18:56.972Z,47.7
2022-09-23T19:20:57.002Z,47.63
2022-09-23T19:22:57.025Z,47.79
2022-09-23T19:24:57.576Z,47.59
2022-09-23T19:27:57.020Z,47.91
2022-09-23T19:29:57.727Z,47.95
2022-09-23T19:32:57.186Z,47.82
2022-09-23T19:35:57.713Z,48
2022-09-23T19:38:56.974Z,47.94
2022-09-23T19:40:57.022Z,48.38
2022-09-23T19:43:56.981Z,48.99
2022-09-23T19:45:57.071Z,49.04
2022-09-23T19:48:57.292Z,49.31
2022-09-23T19:51:56.978Z,49.36
2022-09-23T19:53:57.643Z,49.31
2022-09-23T19:56:57.440Z,49.31
2022-09-23T19:58:57.462Z,49.29
2022-09-23T20:00:57.741Z,49.43
2022-09-23T20:03:56.993Z,49.49
2022-09-23T20:05:57.414Z,49.53
2022-09-23T20:07:57.446Z,49.75
2022-09-23T20:10:56.985Z,49.79
2022-09-23T20:12:57.198Z,49.78
2022-09-23T20:15:57.064Z,49.68
2022-09-23T20:17:57.678Z,49.25
2022-09-23T20:20:57.583Z,49.6
2022-09-23T20:23:57.012Z,49.75
2022-09-23T20:25:57.498Z,50.2
2022-09-23T20:27:57.809Z,50.02
2022-09-23T20:31:50.410Z,49.82
2022-09-23T20:33:57.115Z,49.89
2022-09-23T20:35:57.563Z,50.01
2022-09-23T20:38:57.011Z,50
2022-09-23T20:40:57.208Z,49.89
2022-09-23T20:42:57.541Z,49.73
2022-09-23T20:45:56.978Z,49.69
2022-09-23T20:47:57.476Z,50.03
2022-09-23T20:50:57.539Z,50.14
2022-09-23T20:52:57.584Z,49.94
2022-09-23T20:54:58.112Z,50.01
2022-09-23T20:57:57.700Z,50.16
2022-09-23T21:00:57.045Z,49.73
2022-09-23T21:03:57.004Z,50.28
2022-09-23T21:05:57.164Z,50.42
2022-09-23T21:08:00.806Z,50.36
2022-09-23T21:10:56.995Z,50.5
2022-09-23T21:12:57.024Z,50.26
2022-09-23T21:14:57.336Z,50.2
2022-09-23T21:17:57.025Z,50.52
2022-09-23T21:19:57.797Z,50.38
2022-09-23T21:22:57.029Z,50.7
2022-09-23T21:25:57.049Z,50.57
2022-09-23T21:27:57.659Z,50.1
2022-09-23T21:29:57.761Z,50.29
2022-09-23T21:32:57.233Z,50.31
2022-09-23T21:35:57.109Z,50.48
2022-09-23T21:38:57.031Z,50.3
2022-09-23T21:41:57.036Z,50.42
2022-09-23T21:43:57.033Z,50.54
2022-09-23T21:45:57.024Z,50.48
2022-09-23T21:47:57.478Z,50.72
2022-09-23T21:50:57.306Z,50.59
2022-09-23T21:53:57.445Z,50.18
2022-09-23T21:55:57.777Z,50.06
2022-09-23T21:58:57.300Z,49.82
2022-09-23T22:04:57.090Z,50.06
2022-09-23T22:06:57.477Z,50.15
2022-09-23T22:09:57.029Z,50.11
2022-09-23T22:12:57.839Z,50.27
2022-09-23T22:15:57.434Z,50.39
2022-09-23T22:18:57.013Z,50.25
2022-09-23T22:20:57.035Z,50.04
2022-09-23T22:23:57.044Z,50.18
2022-09-23T22:26:00.732Z,50.26
2022-09-23T22:28:57.022Z,50.39
2022-09-23T22:31:57.038Z,50.42
2022-09-23T22:33:57.514Z,49.84
2022-09-23T22:36:57.414Z,50.45
2022-09-23T22:39:57.178Z,50.55
2022-09-23T22:42:57.485Z,50.8
2022-09-23T22:45:57.057Z,50.64
2022-09-23T22:48:57.332Z,50.77
2022-09-23T22:51:03.321Z,50.84
2022-09-23T22:53:57.566Z,50.58
2022-09-23T22:56:57.411Z,51.25
2022-09-23T22:59:57.034Z,51.27
2022-09-23T23:02:57.407Z,51.18
2022-09-23T23:05:57.017Z,51.07
2022-09-23T23:07:57.015Z,50.9
2022-09-23T23:09:57.444Z,51.36
2022-09-23T23:12:57.067Z,53.29
2022-09-23T23:14:57.390Z,53.23
2022-09-23T23:16:57.491Z,52.71
2022-09-23T23:19:57.055Z,52.66
2022-09-23T23:21:57.468Z,52.61
2022-09-23T23:24:57.033Z,52.17
2022-09-23T23:26:57.532Z,52.16
2022-09-23T23:29:57.255Z,52.2
2022-09-23T23:32:57.605Z,52.1
2022-09-23T23:36:00.202Z,52.02
2022-09-23T23:37:57.702Z,52.09
2022-09-23T23:40:57.698Z,51.9
2022-09-23T23:43:57.049Z,51.83
2022-09-23T23:46:57.376Z,51.72
2022-09-23T23:48:57.088Z,51.56
2022-09-23T23:51:57.070Z,50.68
2022-09-23T23:53:57.651Z,50.42
2022-09-23T23:56:57.204Z,50.41
2022-09-23T23:59:57.027Z,50.55
